sensor_id;sensor_type;location;lat;lon;timestamp;P1;durP1;ratioP1;P2;durP2;ratioP2
9759;SDS011;4919;48.792;9.202;2022-09-27T00:00:57;3.00;;;2.27;;
9759;SDS011;4919;48.792;9.202;2022-09-27T00:03:25;2.70;;;2.00;;
9759;SDS011;4919;48.792;9.202;2022-09-27T00:06:02;2.57;;;2.10;;
9759;SDS011;4919;48.792;9.202;2022-09-27T00:08:32;2.70;;;2.10;;
9759;SDS011;4919;48.792;9.202;2022-09-27T00:11:01;3.13;;;2.23;;
9759;SDS011;4919;48.792;9.202;2022-09-27T00:13:34;2.67;;;2.10;;
9759;SDS011;4919;48.792;9.202;2022-09-27T00:16:01;2.97;;;2.20;;
9759;SDS011;4919;48.792;9.202;2022-09-27T00:18:32;2.20;;;2.00;;
9759;SDS011;4919;48.792;9.202;2022-09-27T00:21:06;3.43;;;2.07;;
9759;SDS011;4919;48.792;9.202;2022-09-27T00:23:35;3.17;;;2.20;;
9759;SDS011;4919;48.792;9.202;2022-09-27T00:26:03;2.83;;;2.03;;
9759;SDS011;4919;48.792;9.202;2022-09-27T00:28:32;2.20;;;2.00;;
9759;SDS011;4919;48.792;9.202;2022-09-27T00:30:59;2.33;;;2.10;;
9759;SDS011;4919;48.792;9.202;2022-09-27T00:33:27;3.10;;;1.90;;
9759;SDS011;4919;48.792;9.202;2022-09-27T00:35:54;2.90;;;2.20;;
9759;SDS011;4919;48.792;9.202;2022-09-27T00:38:21;3.37;;;2.10;;
9759;SDS011;4919;48.792;9.202;2022-09-27T00:40:48;2.70;;;1.83;;
9759;SDS011;4919;48.792;9.202;2022-09-27T00:43:19;2.47;;;2.00;;
9759;SDS011;4919;48.792;9.202;2022-09-27T00:45:52;2.70;;;2.10;;
9759;SDS011;4919;48.792;9.202;2022-09-27T00:48:28;2.80;;;1.83;;
9759;SDS011;4919;48.792;9.202;2022-09-27T00:50:59;2.47;;;1.90;;
9759;SDS011;4919;48.792;9.202;2022-09-27T00:53:39;2.87;;;1.80;;
9759;SDS011;4919;48.792;9.202;2022-09-27T00:56:13;2.00;;;1.77;;
9759;SDS011;4919;48.792;9.202;2022-09-27T00:58:46;2.37;;;1.83;;
9759;SDS011;4919;48.792;9.202;2022-09-27T01:01:22;2.63;;;1.90;;
9759;SDS011;4919;48.792;9.202;2022-09-27T01:06:37;4.20;;;1.80;;
9759;SDS011;4919;48.792;9.202;2022-09-27T01:09:04;3.37;;;1.80;;
9759;SDS011;4919;48.792;9.202;2022-09-27T01:11:34;2.40;;;1.90;;
9759;SDS011;4919;48.792;9.202;2022-09-27T01:30:49;5.20;;;2.07;;
9759;SDS011;4919;48.792;9.202;2022-09-27T01:39:44;2.33;;;2.03;;
9759;SDS011;4919;48.792;9.202;2022-09-27T01:45:29;2.27;;;1.83;;
9759;SDS011;4919;48.792;9.202;2022-09-27T01:48:15;2.10;;;1.90;;
9759;SDS011;4919;48.792;9.202;2022-09-27T01:50:54;3.13;;;1.90;;
9759;SDS011;4919;48.792;9.202;2022-09-27T01:53:29;3.63;;;2.10;;
9759;SDS011;4919;48.792;9.202;2022-09-27T01:56:28;2.07;;;1.70;;
9759;SDS011;4919;48.792;9.202;2022-09-27T01:59:06;2.87;;;2.00;;
9759;SDS011;4919;48.792;9.202;2022-09-27T02:01:47;1.73;;;1.60;;
9759;SDS011;4919;48.792;9.202;2022-09-27T02:04:20;2.43;;;1.90;;
9759;SDS011;4919;48.792;9.202;2022-09-27T02:07:10;3.00;;;1.70;;
9759;SDS011;4919;48.792;9.202;2022-09-27T02:09:56;1.70;;;1.60;;
9759;SDS011;4919;48.792;9.202;2022-09-27T02:12:43;3.17;;;1.60;;
9759;SDS011;4919;48.792;9.202;2022-09-27T02:15:17;2.47;;;1.90;;
9759;SDS011;4919;48.792;9.202;2022-09-27T02:18:04;2.80;;;2.07;;
9759;SDS011;4919;48.792;9.202;2022-09-27T02:20:48;2.23;;;1.70;;
9759;SDS011;4919;48.792;9.202;2022-09-27T02:26:14;1.87;;;1.67;;
9759;SDS011;4919;48.792;9.202;2022-09-27T02:31:25;2.07;;;1.60;;
9759;SDS011;4919;48.792;9.202;2022-09-27T02:33:57;1.97;;;1.70;;
9759;SDS011;4919;48.792;9.202;2022-09-27T02:36:30;2.23;;;1.77;;
9759;SDS011;4919;48.792;9.202;2022-09-27T02:38:57;2.07;;;1.73;;
9759;SDS011;4919;48.792;9.202;2022-09-27T02:41:28;1.93;;;1.53;;
9759;SDS011;4919;48.792;9.202;2022-09-27T02:43:56;4.33;;;1.70;;
9759;SDS011;4919;48.792;9.202;2022-09-27T02:56:24;2.80;;;1.80;;
9759;SDS011;4919;48.792;9.202;2022-09-27T02:59:08;3.13;;;1.97;;
9759;SDS011;4919;48.792;9.202;2022-09-27T03:05:43;2.20;;;2.00;;
9759;SDS011;4919;48.792;9.202;2022-09-27T03:08:12;4.90;;;2.13;;
9759;SDS011;4919;48.792;9.202;2022-09-27T03:10:39;5.67;;;2.10;;
9759;SDS011;4919;48.792;9.202;2022-09-27T03:13:07;2.70;;;1.90;;
9759;SDS011;4919;48.792;9.202;2022-09-27T03:15:34;3.00;;;2.10;;
9759;SDS011;4919;48.792;9.202;2022-09-27T03:18:01;2.40;;;1.93;;
9759;SDS011;4919;48.792;9.202;2022-09-27T03:20:40;3.27;;;2.10;;
9759;SDS011;4919;48.792;9.202;2022-09-27T03:23:13;3.50;;;2.23;;
9759;SDS011;4919;48.792;9.202;2022-09-27T03:25:40;3.50;;;2.37;;
9759;SDS011;4919;48.792;9.202;2022-09-27T03:28:10;4.43;;;2.10;;
9759;SDS011;4919;48.792;9.202;2022-09-27T03:30:39;3.70;;;2.30;;
9759;SDS011;4919;48.792;9.202;2022-09-27T03:33:09;2.70;;;2.07;;
9759;SDS011;4919;48.792;9.202;2022-09-27T03:35:44;2.33;;;2.03;;
9759;SDS011;4919;48.792;9.202;2022-09-27T03:38:12;2.63;;;2.20;;
9759;SDS011;4919;48.792;9.202;2022-09-27T03:40:39;3.47;;;2.27;;
9759;SDS011;4919;48.792;9.202;2022-09-27T03:43:07;2.90;;;2.30;;
9759;SDS011;4919;48.792;9.202;2022-09-27T03:45:34;4.70;;;2.17;;
9759;SDS011;4919;48.792;9.202;2022-09-27T03:48:04;3.33;;;2.10;;
9759;SDS011;4919;48.792;9.202;2022-09-27T03:50:32;2.63;;;2.27;;
9759;SDS011;4919;48.792;9.202;2022-09-27T03:52:59;4.30;;;2.43;;
9759;SDS011;4919;48.792;9.202;2022-09-27T03:55:26;2.43;;;1.93;;
9759;SDS011;4919;48.792;9.202;2022-09-27T03:57:53;5.27;;;2.13;;
9759;SDS011;4919;48.792;9.202;2022-09-27T04:00:21;3.33;;;2.20;;
9759;SDS011;4919;48.792;9.202;2022-09-27T04:02:48;4.00;;;2.47;;
9759;SDS011;4919;48.792;9.202;2022-09-27T04:05:35;3.37;;;2.10;;
9759;SDS011;4919;48.792;9.202;2022-09-27T04:08:09;2.60;;;2.10;;
9759;SDS011;4919;48.792;9.202;2022-09-27T04:10:37;3.90;;;2.10;;
9759;SDS011;4919;48.792;9.202;2022-09-27T04:13:04;2.90;;;2.00;;
9759;SDS011;4919;48.792;9.202;2022-09-27T04:15:36;2.77;;;2.27;;
9759;SDS011;4919;48.792;9.202;2022-09-27T04:18:30;2.23;;;2.00;;
9759;SDS011;4919;48.792;9.202;2022-09-27T04:21:16;3.37;;;2.23;;
9759;SDS011;4919;48.792;9.202;2022-09-27T04:23:48;3.10;;;1.97;;
9759;SDS011;4919;48.792;9.202;2022-09-27T04:26:18;3.57;;;2.10;;
9759;SDS011;4919;48.792;9.202;2022-09-27T04:29:06;3.00;;;2.43;;
9759;SDS011;4919;48.792;9.202;2022-09-27T04:31:37;6.37;;;2.77;;
9759;SDS011;4919;48.792;9.202;2022-09-27T04:34:30;2.23;;;2.00;;
9759;SDS011;4919;48.792;9.202;2022-09-27T04:37:21;3.97;;;2.10;;
9759;SDS011;4919;48.792;9.202;2022-09-27T04:39:51;2.97;;;2.10;;
9759;SDS011;4919;48.792;9.202;2022-09-27T04:42:18;3.37;;;2.37;;
9759;SDS011;4919;48.792;9.202;2022-09-27T04:44:45;3.43;;;2.50;;
9759;SDS011;4919;48.792;9.202;2022-09-27T04:47:13;4.80;;;2.50;;
9759;SDS011;4919;48.792;9.202;2022-09-27T04:49:40;3.27;;;2.30;;
9759;SDS011;4919;48.792;9.202;2022-09-27T04:52:07;3.30;;;2.30;;
9759;SDS011;4919;48.792;9.202;2022-09-27T04:54:34;3.70;;;2.10;;
9759;SDS011;4919;48.792;9.202;2022-09-27T04:57:10;3.03;;;2.50;;
9759;SDS011;4919;48.792;9.202;2022-09-27T04:59:38;4.87;;;2.70;;
9759;SDS011;4919;48.792;9.202;2022-09-27T05:02:08;3.60;;;2.40;;
9759;SDS011;4919;48.792;9.202;2022-09-27T05:04:47;3.00;;;2.40;;
9759;SDS011;4919;48.792;9.202;2022-09-27T05:07:17;4.00;;;2.40;;
9759;SDS011;4919;48.792;9.202;2022-09-27T05:09:51;4.10;;;2.67;;
9759;SDS011;4919;48.792;9.202;2022-09-27T05:12:18;8.63;;;2.60;;
9759;SDS011;4919;48.792;9.202;2022-09-27T05:14:57;3.50;;;2.63;;
9759;SDS011;4919;48.792;9.202;2022-09-27T05:17:43;5.37;;;2.60;;
9759;SDS011;4919;48.792;9.202;2022-09-27T05:20:33;3.43;;;2.83;;
9759;SDS011;4919;48.792;9.202;2022-09-27T05:23:19;3.20;;;2.90;;
9759;SDS011;4919;48.792;9.202;2022-09-27T05:25:47;3.47;;;2.50;;
9759;SDS011;4919;48.792;9.202;2022-09-27T05:28:13;4.03;;;3.00;;
9759;SDS011;4919;48.792;9.202;2022-09-27T05:30:40;3.57;;;2.83;;
9759;SDS011;4919;48.792;9.202;2022-09-27T05:33:13;3.33;;;2.87;;
9759;SDS011;4919;48.792;9.202;2022-09-27T05:35:40;5.00;;;2.70;;
9759;SDS011;4919;48.792;9.202;2022-09-27T05:38:11;2.60;;;2.40;;
9759;SDS011;4919;48.792;9.202;2022-09-27T05:40:40;3.60;;;2.67;;
9759;SDS011;4919;48.792;9.202;2022-09-27T05:43:10;2.97;;;2.67;;
9759;SDS011;4919;48.792;9.202;2022-09-27T05:45:37;5.03;;;3.37;;
9759;SDS011;4919;48.792;9.202;2022-09-27T05:48:05;6.20;;;3.00;;
9759;SDS011;4919;48.792;9.202;2022-09-27T05:50:37;3.93;;;3.10;;
9759;SDS011;4919;48.792;9.202;2022-09-27T05:53:04;5.43;;;2.77;;
9759;SDS011;4919;48.792;9.202;2022-09-27T05:55:32;4.40;;;2.90;;
9759;SDS011;4919;48.792;9.202;2022-09-27T05:58:03;5.17;;;2.80;;
9759;SDS011;4919;48.792;9.202;2022-09-27T06:00:38;4.93;;;3.30;;
9759;SDS011;4919;48.792;9.202;2022-09-27T06:03:25;4.10;;;2.87;;
9759;SDS011;4919;48.792;9.202;2022-09-27T06:06:10;4.27;;;3.17;;
9759;SDS011;4919;48.792;9.202;2022-09-27T06:08:44;4.63;;;2.93;;
9759;SDS011;4919;48.792;9.202;2022-09-27T06:11:15;4.97;;;3.20;;
9759;SDS011;4919;48.792;9.202;2022-09-27T06:13:43;7.50;;;3.07;;
9759;SDS011;4919;48.792;9.202;2022-09-27T06:16:11;3.90;;;2.90;;
9759;SDS011;4919;48.792;9.202;2022-09-27T06:18:41;4.60;;;3.10;;
9759;SDS011;4919;48.792;9.202;2022-09-27T06:21:09;3.93;;;3.00;;
9759;SDS011;4919;48.792;9.202;2022-09-27T06:23:36;4.43;;;3.10;;
9759;SDS011;4919;48.792;9.202;2022-09-27T06:26:11;5.50;;;3.13;;
9759;SDS011;4919;48.792;9.202;2022-09-27T06:28:57;4.40;;;3.33;;
9759;SDS011;4919;48.792;9.202;2022-09-27T06:31:24;3.77;;;3.40;;
9759;SDS011;4919;48.792;9.202;2022-09-27T06:34:00;6.10;;;3.47;;
9759;SDS011;4919;48.792;9.202;2022-09-27T06:36:28;4.00;;;3.60;;
9759;SDS011;4919;48.792;9.202;2022-09-27T06:38:56;5.37;;;3.30;;
9759;SDS011;4919;48.792;9.202;2022-09-27T06:41:40;3.47;;;3.17;;
9759;SDS011;4919;48.792;9.202;2022-09-27T06:44:15;4.60;;;3.40;;
9759;SDS011;4919;48.792;9.202;2022-09-27T06:47:03;5.80;;;3.40;;
9759;SDS011;4919;48.792;9.202;2022-09-27T06:49:56;4.77;;;3.60;;
9759;SDS011;4919;48.792;9.202;2022-09-27T06:52:24;5.93;;;3.60;;
9759;SDS011;4919;48.792;9.202;2022-09-27T06:54:50;4.13;;;3.20;;
9759;SDS011;4919;48.792;9.202;2022-09-27T06:57:19;4.60;;;3.90;;
9759;SDS011;4919;48.792;9.202;2022-09-27T07:00:06;5.73;;;3.50;;
9759;SDS011;4919;48.792;9.202;2022-09-27T07:03:09;4.53;;;3.40;;
9759;SDS011;4919;48.792;9.202;2022-09-27T07:05:59;4.17;;;3.33;;
9759;SDS011;4919;48.792;9.202;2022-09-27T07:08:56;8.10;;;3.93;;
9759;SDS011;4919;48.792;9.202;2022-09-27T07:11:23;5.93;;;3.77;;
9759;SDS011;4919;48.792;9.202;2022-09-27T07:13:52;5.70;;;4.00;;
9759;SDS011;4919;48.792;9.202;2022-09-27T07:16:18;6.23;;;3.67;;
9759;SDS011;4919;48.792;9.202;2022-09-27T07:18:46;6.93;;;3.80;;
9759;SDS011;4919;48.792;9.202;2022-09-27T07:21:15;5.53;;;3.70;;
9759;SDS011;4919;48.792;9.202;2022-09-27T07:23:42;5.40;;;3.70;;
9759;SDS011;4919;48.792;9.202;2022-09-27T07:26:11;4.43;;;3.13;;
9759;SDS011;4919;48.792;9.202;2022-09-27T07:28:38;3.80;;;3.10;;
9759;SDS011;4919;48.792;9.202;2022-09-27T07:31:08;5.53;;;3.60;;
9759;SDS011;4919;48.792;9.202;2022-09-27T07:33:35;3.50;;;2.97;;
9759;SDS011;4919;48.792;9.202;2022-09-27T07:36:09;5.23;;;3.20;;
9759;SDS011;4919;48.792;9.202;2022-09-27T07:38:40;4.57;;;3.30;;
9759;SDS011;4919;48.792;9.202;2022-09-27T07:41:08;3.37;;;3.07;;
9759;SDS011;4919;48.792;9.202;2022-09-27T07:43:37;3.50;;;3.00;;
9759;SDS011;4919;48.792;9.202;2022-09-27T07:46:04;4.70;;;3.40;;
9759;SDS011;4919;48.792;9.202;2022-09-27T07:48:41;5.17;;;3.30;;
9759;SDS011;4919;48.792;9.202;2022-09-27T07:51:28;3.97;;;2.80;;
9759;SDS011;4919;48.792;9.202;2022-09-27T07:54:18;4.00;;;2.90;;
9759;SDS011;4919;48.792;9.202;2022-09-27T07:57:14;4.37;;;3.03;;
9759;SDS011;4919;48.792;9.202;2022-09-27T07:59:46;3.60;;;2.97;;
9759;SDS011;4919;48.792;9.202;2022-09-27T08:02:16;3.17;;;2.73;;
9759;SDS011;4919;48.792;9.202;2022-09-27T08:04:45;4.33;;;3.47;;
9759;SDS011;4919;48.792;9.202;2022-09-27T08:07:15;8.20;;;3.00;;
9759;SDS011;4919;48.792;9.202;2022-09-27T08:09:45;3.20;;;2.90;;
9759;SDS011;4919;48.792;9.202;2022-09-27T08:12:12;3.37;;;3.00;;
9759;SDS011;4919;48.792;9.202;2022-09-27T08:14:39;3.83;;;2.90;;
9759;SDS011;4919;48.792;9.202;2022-09-27T08:17:13;3.57;;;3.03;;
9759;SDS011;4919;48.792;9.202;2022-09-27T08:19:59;3.50;;;2.97;;
9759;SDS011;4919;48.792;9.202;2022-09-27T08:22:51;3.33;;;3.00;;
9759;SDS011;4919;48.792;9.202;2022-09-27T08:25:40;3.50;;;3.20;;
9759;SDS011;4919;48.792;9.202;2022-09-27T08:28:27;3.80;;;3.20;;
9759;SDS011;4919;48.792;9.202;2022-09-27T08:31:13;5.23;;;3.63;;
9759;SDS011;4919;48.792;9.202;2022-09-27T08:33:41;3.60;;;3.30;;
9759;SDS011;4919;48.792;9.202;2022-09-27T08:36:10;5.53;;;3.23;;
9759;SDS011;4919;48.792;9.202;2022-09-27T08:38:37;3.80;;;3.23;;
9759;SDS011;4919;48.792;9.202;2022-09-27T08:41:08;3.27;;;2.97;;
9759;SDS011;4919;48.792;9.202;2022-09-27T08:44:06;4.80;;;2.90;;
9759;SDS011;4919;48.792;9.202;2022-09-27T08:47:16;5.43;;;3.37;;
9759;SDS011;4919;48.792;9.202;2022-09-27T08:52:30;3.27;;;2.97;;
9759;SDS011;4919;48.792;9.202;2022-09-27T08:55:17;3.77;;;3.20;;
9759;SDS011;4919;48.792;9.202;2022-09-27T08:58:15;3.37;;;2.80;;
9759;SDS011;4919;48.792;9.202;2022-09-27T09:00:53;3.53;;;3.10;;
9759;SDS011;4919;48.792;9.202;2022-09-27T09:03:28;3.70;;;3.00;;
9759;SDS011;4919;48.792;9.202;2022-09-27T09:12:16;3.70;;;2.77;;
9759;SDS011;4919;48.792;9.202;2022-09-27T09:35:38;2.73;;;2.50;;
9759;SDS011;4919;48.792;9.202;2022-09-27T09:38:26;3.10;;;2.80;;
9759;SDS011;4919;48.792;9.202;2022-09-27T09:41:15;3.97;;;2.80;;
9759;SDS011;4919;48.792;9.202;2022-09-27T09:43:54;3.33;;;3.00;;
9759;SDS011;4919;48.792;9.202;2022-09-27T09:46:38;3.23;;;2.93;;
9759;SDS011;4919;48.792;9.202;2022-09-27T09:49:22;3.43;;;2.93;;
9759;SDS011;4919;48.792;9.202;2022-09-27T09:52:01;3.73;;;3.23;;
9759;SDS011;4919;48.792;9.202;2022-09-27T09:54:36;3.10;;;2.50;;
9759;SDS011;4919;48.792;9.202;2022-09-27T09:57:15;3.13;;;2.80;;
9759;SDS011;4919;48.792;9.202;2022-09-27T09:59:48;3.97;;;2.93;;
9759;SDS011;4919;48.792;9.202;2022-09-27T10:04:47;4.47;;;3.10;;
9759;SDS011;4919;48.792;9.202;2022-09-27T10:07:15;4.17;;;2.77;;
9759;SDS011;4919;48.792;9.202;2022-09-27T10:09:46;3.10;;;2.80;;
9759;SDS011;4919;48.792;9.202;2022-09-27T10:12:33;3.90;;;3.40;;
9759;SDS011;4919;48.792;9.202;2022-09-27T10:15:03;3.37;;;2.93;;
9759;SDS011;4919;48.792;9.202;2022-09-27T10:17:34;3.43;;;3.13;;
9759;SDS011;4919;48.792;9.202;2022-09-27T10:20:07;3.10;;;2.80;;
9759;SDS011;4919;48.792;9.202;2022-09-27T10:22:48;3.20;;;2.90;;
9759;SDS011;4919;48.792;9.202;2022-09-27T10:25:53;3.10;;;2.87;;
9759;SDS011;4919;48.792;9.202;2022-09-27T10:28:34;3.30;;;3.00;;
9759;SDS011;4919;48.792;9.202;2022-09-27T10:34:01;3.37;;;3.07;;
9759;SDS011;4919;48.792;9.202;2022-09-27T10:36:33;3.37;;;3.07;;
9759;SDS011;4919;48.792;9.202;2022-09-27T10:39:03;3.77;;;3.07;;
9759;SDS011;4919;48.792;9.202;2022-09-27T10:41:44;3.77;;;2.80;;
9759;SDS011;4919;48.792;9.202;2022-09-27T10:44:31;2.93;;;2.73;;
9759;SDS011;4919;48.792;9.202;2022-09-27T10:47:11;3.53;;;2.70;;
9759;SDS011;4919;48.792;9.202;2022-09-27T10:49:52;4.33;;;2.70;;
9759;SDS011;4919;48.792;9.202;2022-09-27T10:52:49;2.57;;;2.37;;
9759;SDS011;4919;48.792;9.202;2022-09-27T10:55:54;2.73;;;2.53;;
9759;SDS011;4919;48.792;9.202;2022-09-27T10:58:34;3.87;;;2.83;;
9759;SDS011;4919;48.792;9.202;2022-09-27T11:01:07;2.80;;;2.40;;
9759;SDS011;4919;48.792;9.202;2022-09-27T11:04:00;3.03;;;2.47;;
9759;SDS011;4919;48.792;9.202;2022-09-27T11:06:29;2.87;;;2.30;;
9759;SDS011;4919;48.792;9.202;2022-09-27T11:09:21;4.23;;;2.50;;
9759;SDS011;4919;48.792;9.202;2022-09-27T11:12:09;4.03;;;2.80;;
9759;SDS011;4919;48.792;9.202;2022-09-27T11:14:40;4.13;;;2.50;;
9759;SDS011;4919;48.792;9.202;2022-09-27T11:17:18;5.13;;;2.70;;
9759;SDS011;4919;48.792;9.202;2022-09-27T11:25:41;3.10;;;2.40;;
9759;SDS011;4919;48.792;9.202;2022-09-27T11:37:35;2.57;;;2.37;;
9759;SDS011;4919;48.792;9.202;2022-09-27T11:49:17;3.93;;;1.87;;
9759;SDS011;4919;48.792;9.202;2022-09-27T11:57:50;2.63;;;1.40;;
9759;SDS011;4919;48.792;9.202;2022-09-27T12:00:22;2.67;;;1.40;;
9759;SDS011;4919;48.792;9.202;2022-09-27T12:03:19;2.47;;;1.53;;
9759;SDS011;4919;48.792;9.202;2022-09-27T12:06:14;1.80;;;1.43;;
9759;SDS011;4919;48.792;9.202;2022-09-27T12:14:10;1.80;;;1.70;;
9759;SDS011;4919;48.792;9.202;2022-09-27T12:16:53;2.33;;;1.90;;
9759;SDS011;4919;48.792;9.202;2022-09-27T12:19:25;2.97;;;2.00;;
9759;SDS011;4919;48.792;9.202;2022-09-27T12:22:05;4.00;;;2.30;;
9759;SDS011;4919;48.792;9.202;2022-09-27T12:24:41;3.13;;;2.37;;
9759;SDS011;4919;48.792;9.202;2022-09-27T12:27:33;4.40;;;2.33;;
9759;SDS011;4919;48.792;9.202;2022-09-27T12:30:04;3.00;;;2.70;;
9759;SDS011;4919;48.792;9.202;2022-09-27T12:32:34;3.43;;;2.83;;
9759;SDS011;4919;48.792;9.202;2022-09-27T12:35:23;3.40;;;2.90;;
9759;SDS011;4919;48.792;9.202;2022-09-27T12:40:41;3.57;;;2.93;;
9759;SDS011;4919;48.792;9.202;2022-09-27T12:43:18;3.27;;;2.97;;
9759;SDS011;4919;48.792;9.202;2022-09-27T12:51:41;3.07;;;2.30;;
9759;SDS011;4919;48.792;9.202;2022-09-27T12:54:22;2.60;;;2.40;;
9759;SDS011;4919;48.792;9.202;2022-09-27T13:13:57;3.37;;;2.40;;
9759;SDS011;4919;48.792;9.202;2022-09-27T13:16:26;2.70;;;2.30;;
9759;SDS011;4919;48.792;9.202;2022-09-27T13:18:55;2.87;;;2.40;;
9759;SDS011;4919;48.792;9.202;2022-09-27T13:24:43;4.17;;;2.60;;
9759;SDS011;4919;48.792;9.202;2022-09-27T13:36:04;2.40;;;2.10;;
9759;SDS011;4919;48.792;9.202;2022-09-27T13:38:31;3.47;;;2.20;;
9759;SDS011;4919;48.792;9.202;2022-09-27T13:41:14;3.40;;;2.10;;
9759;SDS011;4919;48.792;9.202;2022-09-27T13:46:36;2.23;;;2.03;;
9759;SDS011;4919;48.792;9.202;2022-09-27T13:49:20;2.80;;;2.00;;
9759;SDS011;4919;48.792;9.202;2022-09-27T13:52:18;2.23;;;1.97;;
9759;SDS011;4919;48.792;9.202;2022-09-27T13:55:36;4.37;;;2.03;;
9759;SDS011;4919;48.792;9.202;2022-09-27T14:01:29;3.97;;;2.37;;
9759;SDS011;4919;48.792;9.202;2022-09-27T14:04:02;2.97;;;2.50;;
9759;SDS011;4919;48.792;9.202;2022-09-27T14:06:40;2.83;;;2.63;;
9759;SDS011;4919;48.792;9.202;2022-09-27T14:09:54;4.53;;;2.73;;
9759;SDS011;4919;48.792;9.202;2022-09-27T14:12:15;2.67;;;2.40;;
9759;SDS011;4919;48.792;9.202;2022-09-27T14:15:06;4.03;;;3.07;;
9759;SDS011;4919;48.792;9.202;2022-09-27T14:17:41;3.73;;;3.30;;
9759;SDS011;4919;48.792;9.202;2022-09-27T14:20:29;7.10;;;5.97;;
9759;SDS011;4919;48.792;9.202;2022-09-27T14:23:24;4.27;;;3.83;;
9759;SDS011;4919;48.792;9.202;2022-09-27T14:25:52;4.80;;;3.60;;
9759;SDS011;4919;48.792;9.202;2022-09-27T14:28:25;4.90;;;4.40;;
9759;SDS011;4919;48.792;9.202;2022-09-27T14:31:15;6.10;;;4.20;;
9759;SDS011;4919;48.792;9.202;2022-09-27T14:34:14;3.53;;;3.23;;
9759;SDS011;4919;48.792;9.202;2022-09-27T14:36:45;3.40;;;3.10;;
9759;SDS011;4919;48.792;9.202;2022-09-27T14:39:42;4.73;;;4.27;;
9759;SDS011;4919;48.792;9.202;2022-09-27T14:42:26;4.50;;;4.07;;
9759;SDS011;4919;48.792;9.202;2022-09-27T14:44:55;4.50;;;3.33;;
9759;SDS011;4919;48.792;9.202;2022-09-27T14:47:26;3.90;;;3.43;;
9759;SDS011;4919;48.792;9.202;2022-09-27T14:50:00;3.70;;;3.40;;
9759;SDS011;4919;48.792;9.202;2022-09-27T14:52:38;3.97;;;3.57;;
9759;SDS011;4919;48.792;9.202;2022-09-27T14:55:07;3.93;;;3.53;;
9759;SDS011;4919;48.792;9.202;2022-09-27T14:57:51;3.47;;;2.80;;
9759;SDS011;4919;48.792;9.202;2022-09-27T15:02:52;3.80;;;3.40;;
9759;SDS011;4919;48.792;9.202;2022-09-27T15:05:22;4.00;;;3.07;;
9759;SDS011;4919;48.792;9.202;2022-09-27T15:07:53;3.93;;;3.10;;
9759;SDS011;4919;48.792;9.202;2022-09-27T15:10:24;4.37;;;3.40;;
9759;SDS011;4919;48.792;9.202;2022-09-27T15:12:53;4.50;;;3.50;;
9759;SDS011;4919;48.792;9.202;2022-09-27T15:15:29;3.87;;;3.37;;
9759;SDS011;4919;48.792;9.202;2022-09-27T15:18:01;5.53;;;3.97;;
9759;SDS011;4919;48.792;9.202;2022-09-27T15:20:30;4.93;;;3.57;;
9759;SDS011;4919;48.792;9.202;2022-09-27T15:23:04;5.00;;;3.60;;
9759;SDS011;4919;48.792;9.202;2022-09-27T15:25:35;5.43;;;3.67;;
9759;SDS011;4919;48.792;9.202;2022-09-27T15:30:37;5.93;;;4.27;;
9759;SDS011;4919;48.792;9.202;2022-09-27T15:33:18;5.53;;;4.37;;
9759;SDS011;4919;48.792;9.202;2022-09-27T15:36:04;6.60;;;4.30;;
9759;SDS011;4919;48.792;9.202;2022-09-27T15:38:33;5.33;;;4.40;;
9759;SDS011;4919;48.792;9.202;2022-09-27T15:41:09;7.40;;;4.40;;
9759;SDS011;4919;48.792;9.202;2022-09-27T15:43:48;5.80;;;4.83;;
9759;SDS011;4919;48.792;9.202;2022-09-27T15:51:49;5.67;;;4.20;;
9759;SDS011;4919;48.792;9.202;2022-09-27T15:54:21;4.47;;;4.00;;
9759;SDS011;4919;48.792;9.202;2022-09-27T15:56:49;4.40;;;3.63;;
9759;SDS011;4919;48.792;9.202;2022-09-27T15:59:21;5.70;;;4.20;;
9759;SDS011;4919;48.792;9.202;2022-09-27T16:01:53;4.93;;;4.43;;
9759;SDS011;4919;48.792;9.202;2022-09-27T16:04:21;5.43;;;4.20;;
9759;SDS011;4919;48.792;9.202;2022-09-27T16:06:48;4.47;;;3.70;;
9759;SDS011;4919;48.792;9.202;2022-09-27T16:09:16;4.30;;;3.90;;
9759;SDS011;4919;48.792;9.202;2022-09-27T16:11:45;4.33;;;3.60;;
9759;SDS011;4919;48.792;9.202;2022-09-27T16:14:12;4.80;;;4.23;;
9759;SDS011;4919;48.792;9.202;2022-09-27T16:16:44;4.47;;;3.90;;
9759;SDS011;4919;48.792;9.202;2022-09-27T16:19:13;4.43;;;3.70;;
9759;SDS011;4919;48.792;9.202;2022-09-27T16:21:40;4.50;;;3.90;;
9759;SDS011;4919;48.792;9.202;2022-09-27T16:24:08;5.50;;;4.30;;
9759;SDS011;4919;48.792;9.202;2022-09-27T16:26:35;6.73;;;3.77;;
9759;SDS011;4919;48.792;9.202;2022-09-27T16:29:03;6.00;;;4.60;;
9759;SDS011;4919;48.792;9.202;2022-09-27T16:31:34;7.97;;;5.40;;
9759;SDS011;4919;48.792;9.202;2022-09-27T16:34:01;8.60;;;5.07;;
9759;SDS011;4919;48.792;9.202;2022-09-27T16:36:28;10.17;;;8.37;;
9759;SDS011;4919;48.792;9.202;2022-09-27T16:38:55;8.27;;;6.80;;
9759;SDS011;4919;48.792;9.202;2022-09-27T16:41:21;7.60;;;5.50;;
9759;SDS011;4919;48.792;9.202;2022-09-27T16:43:49;6.57;;;5.30;;
9759;SDS011;4919;48.792;9.202;2022-09-27T16:46:15;5.93;;;4.87;;
9759;SDS011;4919;48.792;9.202;2022-09-27T16:48:44;7.40;;;5.70;;
9759;SDS011;4919;48.792;9.202;2022-09-27T16:51:14;6.30;;;4.90;;
9759;SDS011;4919;48.792;9.202;2022-09-27T16:54:04;6.07;;;4.17;;
9759;SDS011;4919;48.792;9.202;2022-09-27T16:56:32;5.70;;;4.57;;
9759;SDS011;4919;48.792;9.202;2022-09-27T16:59:00;5.47;;;4.60;;
9759;SDS011;4919;48.792;9.202;2022-09-27T17:01:30;5.93;;;4.43;;
9759;SDS011;4919;48.792;9.202;2022-09-27T17:03:57;5.13;;;4.57;;
9759;SDS011;4919;48.792;9.202;2022-09-27T17:06:25;4.70;;;4.03;;
9759;SDS011;4919;48.792;9.202;2022-09-27T17:08:53;5.10;;;4.10;;
9759;SDS011;4919;48.792;9.202;2022-09-27T17:11:21;4.67;;;4.00;;
9759;SDS011;4919;48.792;9.202;2022-09-27T17:13:51;6.60;;;4.47;;
9759;SDS011;4919;48.792;9.202;2022-09-27T17:16:19;4.33;;;3.60;;
9759;SDS011;4919;48.792;9.202;2022-09-27T17:18:47;4.80;;;3.87;;
9759;SDS011;4919;48.792;9.202;2022-09-27T17:21:14;4.93;;;3.90;;
9759;SDS011;4919;48.792;9.202;2022-09-27T17:23:41;4.27;;;3.83;;
9759;SDS011;4919;48.792;9.202;2022-09-27T17:28:43;4.33;;;3.17;;
9759;SDS011;4919;48.792;9.202;2022-09-27T17:31:11;5.53;;;3.70;;
9759;SDS011;4919;48.792;9.202;2022-09-27T17:33:45;4.77;;;3.40;;
9759;SDS011;4919;48.792;9.202;2022-09-27T17:36:14;4.87;;;3.40;;
9759;SDS011;4919;48.792;9.202;2022-09-27T17:38:48;4.67;;;3.50;;
9759;SDS011;4919;48.792;9.202;2022-09-27T17:41:17;4.13;;;3.20;;
9759;SDS011;4919;48.792;9.202;2022-09-27T17:43:45;5.73;;;3.77;;
9759;SDS011;4919;48.792;9.202;2022-09-27T17:46:16;6.90;;;3.97;;
9759;SDS011;4919;48.792;9.202;2022-09-27T17:48:45;4.47;;;3.67;;
9759;SDS011;4919;48.792;9.202;2022-09-27T17:51:31;5.37;;;3.80;;
9759;SDS011;4919;48.792;9.202;2022-09-27T17:53:59;6.53;;;4.50;;
9759;SDS011;4919;48.792;9.202;2022-09-27T17:56:26;5.90;;;5.17;;
9759;SDS011;4919;48.792;9.202;2022-09-27T17:58:53;6.00;;;5.20;;
9759;SDS011;4919;48.792;9.202;2022-09-27T18:01:21;7.57;;;5.77;;
9759;SDS011;4919;48.792;9.202;2022-09-27T18:03:53;7.10;;;5.40;;
9759;SDS011;4919;48.792;9.202;2022-09-27T18:06:22;6.53;;;5.50;;
9759;SDS011;4919;48.792;9.202;2022-09-27T18:08:49;7.87;;;5.43;;
9759;SDS011;4919;48.792;9.202;2022-09-27T18:11:18;7.07;;;4.90;;
9759;SDS011;4919;48.792;9.202;2022-09-27T18:13:57;5.17;;;4.60;;
9759;SDS011;4919;48.792;9.202;2022-09-27T18:16:28;5.00;;;4.50;;
9759;SDS011;4919;48.792;9.202;2022-09-27T18:19:02;7.17;;;4.23;;
9759;SDS011;4919;48.792;9.202;2022-09-27T18:21:31;5.53;;;4.80;;
9759;SDS011;4919;48.792;9.202;2022-09-27T18:23:59;5.17;;;4.23;;
9759;SDS011;4919;48.792;9.202;2022-09-27T18:26:29;12.33;;;9.03;;
9759;SDS011;4919;48.792;9.202;2022-09-27T18:29:04;14.33;;;12.43;;
9759;SDS011;4919;48.792;9.202;2022-09-27T18:31:34;12.30;;;9.97;;
9759;SDS011;4919;48.792;9.202;2022-09-27T18:34:01;11.57;;;8.27;;
9759;SDS011;4919;48.792;9.202;2022-09-27T18:36:29;5.97;;;4.77;;
9759;SDS011;4919;48.792;9.202;2022-09-27T18:38:56;8.10;;;5.47;;
9759;SDS011;4919;48.792;9.202;2022-09-27T18:41:26;5.50;;;4.30;;
9759;SDS011;4919;48.792;9.202;2022-09-27T18:43:55;5.10;;;3.80;;
9759;SDS011;4919;48.792;9.202;2022-09-27T18:46:25;8.03;;;4.50;;
9759;SDS011;4919;48.792;9.202;2022-09-27T18:49:02;7.43;;;5.30;;
9759;SDS011;4919;48.792;9.202;2022-09-27T18:51:30;5.47;;;4.90;;
9759;SDS011;4919;48.792;9.202;2022-09-27T18:56:25;7.00;;;5.30;;
9759;SDS011;4919;48.792;9.202;2022-09-27T18:58:52;11.53;;;9.17;;